sensor_id;sensor_type;location;lat;lon;timestamp;P1;durP1;ratioP1;P2;durP2;ratioP2
27925;SDS011;15267;47.838;12.128;2024-01-11T00:01:21;89.05;;;35.70;;
27925;SDS011;15267;47.838;12.128;2024-01-11T00:03:47;90.60;;;35.03;;
27925;SDS011;15267;47.838;12.128;2024-01-11T00:06:13;91.50;;;35.83;;
27925;SDS011;15267;47.838;12.128;2024-01-11T00:08:39;85.88;;;35.47;;
27925;SDS011;15267;47.838;12.128;2024-01-11T00:11:05;90.93;;;36.42;;
27925;SDS011;15267;47.838;12.128;2024-01-11T00:13:31;83.75;;;35.97;;
27925;SDS011;15267;47.838;12.128;2024-01-11T00:15:57;89.30;;;35.42;;
27925;SDS011;15267;47.838;12.128;2024-01-11T00:18:23;87.32;;;36.88;;
27925;SDS011;15267;47.838;12.128;2024-01-11T00:20:49;86.85;;;35.30;;
27925;SDS011;15267;47.838;12.128;2024-01-11T00:23:15;77.38;;;32.33;;
27925;SDS011;15267;47.838;12.128;2024-01-11T00:25:41;76.40;;;32.67;;
27925;SDS011;15267;47.838;12.128;2024-01-11T00:28:07;76.30;;;32.88;;
27925;SDS011;15267;47.838;12.128;2024-01-11T00:30:33;78.82;;;32.90;;
27925;SDS011;15267;47.838;12.128;2024-01-11T00:32:59;78.90;;;33.42;;
27925;SDS011;15267;47.838;12.128;2024-01-11T00:35:24;81.05;;;34.03;;
27925;SDS011;15267;47.838;12.128;2024-01-11T00:37:50;82.13;;;32.72;;
27925;SDS011;15267;47.838;12.128;2024-01-11T00:40:16;85.75;;;33.38;;
27925;SDS011;15267;47.838;12.128;2024-01-11T00:42:42;80.30;;;32.85;;
27925;SDS011;15267;47.838;12.128;2024-01-11T00:45:08;83.75;;;33.67;;
27925;SDS011;15267;47.838;12.128;2024-01-11T00:47:34;85.63;;;32.45;;
27925;SDS011;15267;47.838;12.128;2024-01-11T00:50:00;80.80;;;32.75;;
27925;SDS011;15267;47.838;12.128;2024-01-11T00:52:26;90.05;;;35.03;;
27925;SDS011;15267;47.838;12.128;2024-01-11T00:54:52;91.30;;;34.25;;
27925;SDS011;15267;47.838;12.128;2024-01-11T00:57:18;81.82;;;32.78;;
27925;SDS011;15267;47.838;12.128;2024-01-11T00:59:44;80.35;;;33.13;;
27925;SDS011;15267;47.838;12.128;2024-01-11T01:02:11;84.45;;;33.92;;
27925;SDS011;15267;47.838;12.128;2024-01-11T01:04:37;86.57;;;33.30;;
27925;SDS011;15267;47.838;12.128;2024-01-11T01:07:04;88.90;;;35.22;;
27925;SDS011;15267;47.838;12.128;2024-01-11T01:09:30;85.53;;;33.65;;
27925;SDS011;15267;47.838;12.128;2024-01-11T01:11:56;86.15;;;33.30;;
27925;SDS011;15267;47.838;12.128;2024-01-11T01:14:22;86.57;;;35.13;;
27925;SDS011;15267;47.838;12.128;2024-01-11T01:16:49;80.10;;;32.13;;
27925;SDS011;15267;47.838;12.128;2024-01-11T01:19:14;84.35;;;33.97;;
27925;SDS011;15267;47.838;12.128;2024-01-11T01:21:40;92.57;;;35.00;;
27925;SDS011;15267;47.838;12.128;2024-01-11T01:24:06;89.38;;;34.13;;
27925;SDS011;15267;47.838;12.128;2024-01-11T01:26:32;79.45;;;32.42;;
27925;SDS011;15267;47.838;12.128;2024-01-11T01:28:58;82.35;;;32.78;;
27925;SDS011;15267;47.838;12.128;2024-01-11T01:31:24;76.82;;;30.55;;
27925;SDS011;15267;47.838;12.128;2024-01-11T01:33:50;80.55;;;32.08;;
27925;SDS011;15267;47.838;12.128;2024-01-11T01:36:16;84.13;;;34.33;;
27925;SDS011;15267;47.838;12.128;2024-01-11T01:38:42;93.50;;;35.47;;
27925;SDS011;15267;47.838;12.128;2024-01-11T01:41:08;75.32;;;33.30;;
27925;SDS011;15267;47.838;12.128;2024-01-11T01:43:34;81.80;;;32.05;;
27925;SDS011;15267;47.838;12.128;2024-01-11T01:46:00;82.20;;;32.88;;
27925;SDS011;15267;47.838;12.128;2024-01-11T01:48:26;76.03;;;32.45;;
27925;SDS011;15267;47.838;12.128;2024-01-11T01:50:52;80.90;;;32.67;;
27925;SDS011;15267;47.838;12.128;2024-01-11T01:53:22;77.68;;;32.13;;
27925;SDS011;15267;47.838;12.128;2024-01-11T01:55:48;86.65;;;34.28;;
27925;SDS011;15267;47.838;12.128;2024-01-11T01:58:15;72.43;;;30.50;;
27925;SDS011;15267;47.838;12.128;2024-01-11T02:00:42;81.35;;;33.75;;
27925;SDS011;15267;47.838;12.128;2024-01-11T02:03:09;77.93;;;33.20;;
27925;SDS011;15267;47.838;12.128;2024-01-11T02:05:35;87.20;;;36.00;;
27925;SDS011;15267;47.838;12.128;2024-01-11T02:08:01;80.25;;;33.88;;
27925;SDS011;15267;47.838;12.128;2024-01-11T02:10:30;80.65;;;34.50;;
27925;SDS011;15267;47.838;12.128;2024-01-11T02:12:58;78.65;;;32.75;;
27925;SDS011;15267;47.838;12.128;2024-01-11T02:15:24;76.18;;;31.92;;
27925;SDS011;15267;47.838;12.128;2024-01-11T02:17:50;81.03;;;33.65;;
27925;SDS011;15267;47.838;12.128;2024-01-11T02:20:16;78.82;;;34.08;;
27925;SDS011;15267;47.838;12.128;2024-01-11T02:22:43;69.70;;;32.15;;
27925;SDS011;15267;47.838;12.128;2024-01-11T02:25:12;78.13;;;32.88;;
27925;SDS011;15267;47.838;12.128;2024-01-11T02:27:48;76.63;;;32.10;;
27925;SDS011;15267;47.838;12.128;2024-01-11T02:30:14;71.40;;;30.80;;
27925;SDS011;15267;47.838;12.128;2024-01-11T02:32:41;74.53;;;32.70;;
27925;SDS011;15267;47.838;12.128;2024-01-11T02:35:09;78.32;;;32.83;;
27925;SDS011;15267;47.838;12.128;2024-01-11T02:37:36;65.70;;;30.27;;
27925;SDS011;15267;47.838;12.128;2024-01-11T02:40:04;80.60;;;33.60;;
27925;SDS011;15267;47.838;12.128;2024-01-11T02:42:30;72.57;;;31.48;;
27925;SDS011;15267;47.838;12.128;2024-01-11T02:44:56;73.65;;;32.45;;
27925;SDS011;15267;47.838;12.128;2024-01-11T02:47:22;76.75;;;33.55;;
27925;SDS011;15267;47.838;12.128;2024-01-11T02:49:48;67.30;;;30.15;;
27925;SDS011;15267;47.838;12.128;2024-01-11T02:52:14;69.03;;;32.50;;
27925;SDS011;15267;47.838;12.128;2024-01-11T02:54:39;76.15;;;34.45;;
27925;SDS011;15267;47.838;12.128;2024-01-11T02:57:05;89.22;;;37.72;;
27925;SDS011;15267;47.838;12.128;2024-01-11T02:59:32;76.22;;;34.35;;
27925;SDS011;15267;47.838;12.128;2024-01-11T03:01:58;83.88;;;37.83;;
27925;SDS011;15267;47.838;12.128;2024-01-11T03:04:24;77.88;;;34.03;;
27925;SDS011;15267;47.838;12.128;2024-01-11T03:06:49;84.00;;;35.53;;
27925;SDS011;15267;47.838;12.128;2024-01-11T03:09:15;79.38;;;34.92;;
27925;SDS011;15267;47.838;12.128;2024-01-11T03:11:41;82.95;;;35.97;;
27925;SDS011;15267;47.838;12.128;2024-01-11T03:14:07;85.28;;;37.85;;
27925;SDS011;15267;47.838;12.128;2024-01-11T03:16:33;87.93;;;37.88;;
27925;SDS011;15267;47.838;12.128;2024-01-11T03:18:59;82.63;;;37.47;;
27925;SDS011;15267;47.838;12.128;2024-01-11T03:21:25;88.13;;;39.58;;
27925;SDS011;15267;47.838;12.128;2024-01-11T03:23:51;88.13;;;39.83;;
27925;SDS011;15267;47.838;12.128;2024-01-11T03:26:17;90.85;;;39.13;;
27925;SDS011;15267;47.838;12.128;2024-01-11T03:28:43;83.55;;;38.33;;
27925;SDS011;15267;47.838;12.128;2024-01-11T03:31:10;85.25;;;39.42;;
27925;SDS011;15267;47.838;12.128;2024-01-11T03:33:36;84.95;;;39.80;;
27925;SDS011;15267;47.838;12.128;2024-01-11T03:36:11;88.40;;;40.35;;
27925;SDS011;15267;47.838;12.128;2024-01-11T03:38:37;87.82;;;39.72;;
27925;SDS011;15267;47.838;12.128;2024-01-11T03:41:07;88.03;;;40.63;;
27925;SDS011;15267;47.838;12.128;2024-01-11T03:43:34;85.68;;;38.92;;
27925;SDS011;15267;47.838;12.128;2024-01-11T03:46:00;81.78;;;38.05;;
27925;SDS011;15267;47.838;12.128;2024-01-11T03:48:26;91.97;;;37.55;;
27925;SDS011;15267;47.838;12.128;2024-01-11T03:50:52;85.95;;;38.53;;
27925;SDS011;15267;47.838;12.128;2024-01-11T03:53:18;80.00;;;36.22;;
27925;SDS011;15267;47.838;12.128;2024-01-11T03:55:44;87.30;;;39.38;;
27925;SDS011;15267;47.838;12.128;2024-01-11T03:58:10;83.63;;;40.00;;
27925;SDS011;15267;47.838;12.128;2024-01-11T04:00:36;82.70;;;37.90;;
27925;SDS011;15267;47.838;12.128;2024-01-11T04:03:02;82.90;;;39.03;;
27925;SDS011;15267;47.838;12.128;2024-01-11T04:05:28;84.68;;;38.17;;
27925;SDS011;15267;47.838;12.128;2024-01-11T04:07:54;86.85;;;37.25;;
27925;SDS011;15267;47.838;12.128;2024-01-11T04:10:20;87.93;;;38.10;;
27925;SDS011;15267;47.838;12.128;2024-01-11T04:12:46;86.93;;;38.20;;
27925;SDS011;15267;47.838;12.128;2024-01-11T04:15:13;86.53;;;37.42;;
27925;SDS011;15267;47.838;12.128;2024-01-11T04:17:39;87.65;;;37.35;;
27925;SDS011;15267;47.838;12.128;2024-01-11T04:20:06;87.93;;;38.08;;
27925;SDS011;15267;47.838;12.128;2024-01-11T04:22:33;88.30;;;38.15;;
27925;SDS011;15267;47.838;12.128;2024-01-11T04:24:59;90.80;;;39.60;;
27925;SDS011;15267;47.838;12.128;2024-01-11T04:27:25;94.90;;;40.42;;
27925;SDS011;15267;47.838;12.128;2024-01-11T04:29:51;91.47;;;40.55;;
27925;SDS011;15267;47.838;12.128;2024-01-11T04:32:17;89.95;;;39.00;;
27925;SDS011;15267;47.838;12.128;2024-01-11T04:34:43;88.40;;;37.47;;
27925;SDS011;15267;47.838;12.128;2024-01-11T04:37:09;91.68;;;38.90;;
27925;SDS011;15267;47.838;12.128;2024-01-11T04:39:35;83.03;;;36.15;;
27925;SDS011;15267;47.838;12.128;2024-01-11T04:42:01;91.53;;;38.20;;
27925;SDS011;15267;47.838;12.128;2024-01-11T04:44:28;87.30;;;38.38;;
27925;SDS011;15267;47.838;12.128;2024-01-11T04:46:54;89.90;;;38.13;;
27925;SDS011;15267;47.838;12.128;2024-01-11T04:49:19;89.82;;;37.13;;
27925;SDS011;15267;47.838;12.128;2024-01-11T04:51:46;98.00;;;41.35;;
27925;SDS011;15267;47.838;12.128;2024-01-11T04:54:11;95.75;;;40.20;;
27925;SDS011;15267;47.838;12.128;2024-01-11T04:56:37;93.93;;;38.38;;
27925;SDS011;15267;47.838;12.128;2024-01-11T04:59:03;105.95;;;43.20;;
27925;SDS011;15267;47.838;12.128;2024-01-11T05:01:29;100.05;;;40.50;;
27925;SDS011;15267;47.838;12.128;2024-01-11T05:03:55;91.80;;;38.42;;
27925;SDS011;15267;47.838;12.128;2024-01-11T05:06:21;95.50;;;39.85;;
27925;SDS011;15267;47.838;12.128;2024-01-11T05:08:50;95.57;;;38.80;;
27925;SDS011;15267;47.838;12.128;2024-01-11T05:11:20;101.20;;;38.88;;
27925;SDS011;15267;47.838;12.128;2024-01-11T05:13:46;96.30;;;38.60;;
27925;SDS011;15267;47.838;12.128;2024-01-11T05:18:47;96.50;;;38.50;;
27925;SDS011;15267;47.838;12.128;2024-01-11T05:21:13;90.40;;;38.05;;
27925;SDS011;15267;47.838;12.128;2024-01-11T05:23:40;91.88;;;39.38;;
27925;SDS011;15267;47.838;12.128;2024-01-11T05:26:06;101.20;;;42.53;;
27925;SDS011;15267;47.838;12.128;2024-01-11T05:28:32;92.55;;;39.88;;
27925;SDS011;15267;47.838;12.128;2024-01-11T05:30:58;100.10;;;40.40;;
27925;SDS011;15267;47.838;12.128;2024-01-11T05:33:24;93.82;;;41.30;;
27925;SDS011;15267;47.838;12.128;2024-01-11T05:35:50;99.85;;;40.90;;
27925;SDS011;15267;47.838;12.128;2024-01-11T05:38:18;95.82;;;41.08;;
27925;SDS011;15267;47.838;12.128;2024-01-11T05:40:44;100.28;;;40.63;;
27925;SDS011;15267;47.838;12.128;2024-01-11T05:43:10;99.18;;;41.95;;
27925;SDS011;15267;47.838;12.128;2024-01-11T05:45:36;102.40;;;41.55;;
27925;SDS011;15267;47.838;12.128;2024-01-11T05:48:02;93.18;;;40.97;;
27925;SDS011;15267;47.838;12.128;2024-01-11T05:50:28;101.10;;;40.45;;
27925;SDS011;15267;47.838;12.128;2024-01-11T05:52:54;99.38;;;41.95;;
27925;SDS011;15267;47.838;12.128;2024-01-11T05:55:21;92.28;;;39.25;;
27925;SDS011;15267;47.838;12.128;2024-01-11T05:57:48;95.97;;;41.03;;
27925;SDS011;15267;47.838;12.128;2024-01-11T06:00:14;98.30;;;39.47;;
27925;SDS011;15267;47.838;12.128;2024-01-11T06:02:40;102.40;;;41.30;;
27925;SDS011;15267;47.838;12.128;2024-01-11T06:05:09;95.78;;;40.10;;
27925;SDS011;15267;47.838;12.128;2024-01-11T06:07:35;95.75;;;39.72;;
27925;SDS011;15267;47.838;12.128;2024-01-11T06:10:01;99.78;;;39.85;;
27925;SDS011;15267;47.838;12.128;2024-01-11T06:12:28;103.25;;;39.78;;
27925;SDS011;15267;47.838;12.128;2024-01-11T06:14:54;98.35;;;40.08;;
27925;SDS011;15267;47.838;12.128;2024-01-11T06:17:20;97.95;;;40.55;;
27925;SDS011;15267;47.838;12.128;2024-01-11T06:19:46;99.85;;;39.47;;
27925;SDS011;15267;47.838;12.128;2024-01-11T06:22:12;97.65;;;40.70;;
27925;SDS011;15267;47.838;12.128;2024-01-11T06:24:37;98.25;;;40.75;;
27925;SDS011;15267;47.838;12.128;2024-01-11T06:27:03;141.35;;;46.80;;
27925;SDS011;15267;47.838;12.128;2024-01-11T06:29:29;110.75;;;43.13;;
27925;SDS011;15267;47.838;12.128;2024-01-11T06:31:55;103.55;;;42.67;;
27925;SDS011;15267;47.838;12.128;2024-01-11T06:34:21;103.85;;;41.47;;
27925;SDS011;15267;47.838;12.128;2024-01-11T06:36:47;100.35;;;40.78;;
27925;SDS011;15267;47.838;12.128;2024-01-11T06:39:13;97.30;;;40.15;;
27925;SDS011;15267;47.838;12.128;2024-01-11T06:41:39;94.97;;;39.83;;
27925;SDS011;15267;47.838;12.128;2024-01-11T06:44:05;94.72;;;39.05;;
27925;SDS011;15267;47.838;12.128;2024-01-11T06:46:31;96.20;;;38.30;;
27925;SDS011;15267;47.838;12.128;2024-01-11T06:48:57;98.93;;;40.92;;
27925;SDS011;15267;47.838;12.128;2024-01-11T06:51:23;100.50;;;39.85;;
27925;SDS011;15267;47.838;12.128;2024-01-11T06:53:49;100.13;;;40.03;;
27925;SDS011;15267;47.838;12.128;2024-01-11T06:56:16;97.00;;;40.10;;
27925;SDS011;15267;47.838;12.128;2024-01-11T06:58:42;98.13;;;41.25;;
27925;SDS011;15267;47.838;12.128;2024-01-11T07:01:08;100.30;;;40.42;;
27925;SDS011;15267;47.838;12.128;2024-01-11T07:03:34;109.32;;;43.97;;
27925;SDS011;15267;47.838;12.128;2024-01-11T07:06:00;99.75;;;39.92;;
27925;SDS011;15267;47.838;12.128;2024-01-11T07:08:28;107.30;;;43.03;;
27925;SDS011;15267;47.838;12.128;2024-01-11T07:10:54;106.55;;;41.80;;
27925;SDS011;15267;47.838;12.128;2024-01-11T07:13:20;105.13;;;42.38;;
27925;SDS011;15267;47.838;12.128;2024-01-11T07:15:46;97.68;;;41.78;;
27925;SDS011;15267;47.838;12.128;2024-01-11T07:18:13;100.30;;;41.40;;
27925;SDS011;15267;47.838;12.128;2024-01-11T07:20:39;97.80;;;42.42;;
27925;SDS011;15267;47.838;12.128;2024-01-11T07:23:05;62.70;;;27.92;;
27925;SDS011;15267;47.838;12.128;2024-01-11T07:25:31;87.82;;;39.90;;
27925;SDS011;15267;47.838;12.128;2024-01-11T07:27:57;97.32;;;43.90;;
27925;SDS011;15267;47.838;12.128;2024-01-11T07:30:23;99.78;;;44.95;;
27925;SDS011;15267;47.838;12.128;2024-01-11T07:32:49;102.55;;;42.92;;
27925;SDS011;15267;47.838;12.128;2024-01-11T07:35:15;87.60;;;40.55;;
27925;SDS011;15267;47.838;12.128;2024-01-11T07:37:41;96.38;;;43.20;;
27925;SDS011;15267;47.838;12.128;2024-01-11T07:40:07;99.13;;;42.35;;
27925;SDS011;15267;47.838;12.128;2024-01-11T07:42:36;97.65;;;41.35;;
27925;SDS011;15267;47.838;12.128;2024-01-11T07:45:03;91.47;;;40.72;;
27925;SDS011;15267;47.838;12.128;2024-01-11T07:47:30;98.95;;;41.30;;
27925;SDS011;15267;47.838;12.128;2024-01-11T07:49:56;97.90;;;40.40;;
27925;SDS011;15267;47.838;12.128;2024-01-11T07:52:22;98.70;;;42.20;;
27925;SDS011;15267;47.838;12.128;2024-01-11T07:54:48;95.07;;;43.30;;
27925;SDS011;15267;47.838;12.128;2024-01-11T07:57:14;91.68;;;40.70;;
27925;SDS011;15267;47.838;12.128;2024-01-11T07:59:39;103.93;;;43.08;;
27925;SDS011;15267;47.838;12.128;2024-01-11T08:02:06;92.18;;;39.65;;
27925;SDS011;15267;47.838;12.128;2024-01-11T08:04:32;91.75;;;38.30;;
27925;SDS011;15267;47.838;12.128;2024-01-11T08:06:58;95.28;;;41.33;;
27925;SDS011;15267;47.838;12.128;2024-01-11T08:09:24;95.68;;;41.80;;
27925;SDS011;15267;47.838;12.128;2024-01-11T08:11:50;124.22;;;52.25;;
27925;SDS011;15267;47.838;12.128;2024-01-11T08:14:19;104.57;;;41.80;;
27925;SDS011;15267;47.838;12.128;2024-01-11T08:16:45;105.30;;;43.55;;
27925;SDS011;15267;47.838;12.128;2024-01-11T08:19:11;94.38;;;41.45;;
27925;SDS011;15267;47.838;12.128;2024-01-11T08:21:39;99.80;;;42.08;;
27925;SDS011;15267;47.838;12.128;2024-01-11T08:24:06;111.13;;;45.00;;
27925;SDS011;15267;47.838;12.128;2024-01-11T08:26:32;103.68;;;43.03;;
27925;SDS011;15267;47.838;12.128;2024-01-11T08:28:58;94.90;;;41.78;;
27925;SDS011;15267;47.838;12.128;2024-01-11T08:31:24;105.63;;;44.90;;
27925;SDS011;15267;47.838;12.128;2024-01-11T08:33:50;102.50;;;41.83;;
27925;SDS011;15267;47.838;12.128;2024-01-11T08:36:16;98.97;;;41.65;;
27925;SDS011;15267;47.838;12.128;2024-01-11T08:38:42;102.78;;;43.78;;
27925;SDS011;15267;47.838;12.128;2024-01-11T08:41:08;114.40;;;46.60;;
27925;SDS011;15267;47.838;12.128;2024-01-11T08:43:34;114.00;;;47.50;;
27925;SDS011;15267;47.838;12.128;2024-01-11T08:46:00;104.20;;;44.92;;
27925;SDS011;15267;47.838;12.128;2024-01-11T08:48:27;112.03;;;44.97;;
27925;SDS011;15267;47.838;12.128;2024-01-11T08:50:53;116.57;;;45.13;;
27925;SDS011;15267;47.838;12.128;2024-01-11T08:53:19;96.72;;;41.35;;
27925;SDS011;15267;47.838;12.128;2024-01-11T08:55:46;95.28;;;40.63;;
27925;SDS011;15267;47.838;12.128;2024-01-11T08:58:12;99.90;;;41.55;;
27925;SDS011;15267;47.838;12.128;2024-01-11T09:00:38;98.93;;;42.20;;
27925;SDS011;15267;47.838;12.128;2024-01-11T09:03:04;99.60;;;41.97;;
27925;SDS011;15267;47.838;12.128;2024-01-11T09:05:30;104.63;;;42.53;;
27925;SDS011;15267;47.838;12.128;2024-01-11T09:07:56;88.22;;;40.60;;
27925;SDS011;15267;47.838;12.128;2024-01-11T09:10:22;95.05;;;40.85;;
27925;SDS011;15267;47.838;12.128;2024-01-11T09:12:48;96.40;;;41.10;;
27925;SDS011;15267;47.838;12.128;2024-01-11T09:15:14;94.05;;;40.35;;
27925;SDS011;15267;47.838;12.128;2024-01-11T09:17:40;90.15;;;38.10;;
27925;SDS011;15267;47.838;12.128;2024-01-11T09:20:06;97.28;;;41.55;;
27925;SDS011;15267;47.838;12.128;2024-01-11T09:22:32;98.82;;;41.70;;
27925;SDS011;15267;47.838;12.128;2024-01-11T09:24:58;94.82;;;40.42;;
27925;SDS011;15267;47.838;12.128;2024-01-11T09:27:24;100.93;;;44.97;;
27925;SDS011;15267;47.838;12.128;2024-01-11T09:29:50;113.13;;;46.30;;
27925;SDS011;15267;47.838;12.128;2024-01-11T09:32:16;110.95;;;47.42;;
27925;SDS011;15267;47.838;12.128;2024-01-11T09:34:42;113.47;;;44.25;;
27925;SDS011;15267;47.838;12.128;2024-01-11T09:37:10;108.93;;;44.45;;
27925;SDS011;15267;47.838;12.128;2024-01-11T09:39:36;104.47;;;42.20;;
27925;SDS011;15267;47.838;12.128;2024-01-11T09:42:08;125.43;;;51.63;;
27925;SDS011;15267;47.838;12.128;2024-01-11T09:44:35;107.13;;;45.10;;
27925;SDS011;15267;47.838;12.128;2024-01-11T09:47:02;110.88;;;46.95;;
27925;SDS011;15267;47.838;12.128;2024-01-11T09:49:30;120.57;;;50.83;;
27925;SDS011;15267;47.838;12.128;2024-01-11T09:51:56;99.47;;;42.67;;
27925;SDS011;15267;47.838;12.128;2024-01-11T09:54:22;101.43;;;42.83;;
27925;SDS011;15267;47.838;12.128;2024-01-11T09:56:50;117.03;;;45.47;;
27925;SDS011;15267;47.838;12.128;2024-01-11T09:59:19;108.57;;;45.03;;
27925;SDS011;15267;47.838;12.128;2024-01-11T10:01:49;105.28;;;43.22;;
27925;SDS011;15267;47.838;12.128;2024-01-11T10:04:15;105.72;;;43.47;;
27925;SDS011;15267;47.838;12.128;2024-01-11T10:06:41;99.15;;;39.97;;
27925;SDS011;15267;47.838;12.128;2024-01-11T10:09:07;96.35;;;42.33;;
27925;SDS011;15267;47.838;12.128;2024-01-11T10:11:33;103.60;;;41.33;;
27925;SDS011;15267;47.838;12.128;2024-01-11T10:14:00;93.80;;;41.45;;
27925;SDS011;15267;47.838;12.128;2024-01-11T10:16:27;105.25;;;43.42;;
27925;SDS011;15267;47.838;12.128;2024-01-11T10:18:54;99.88;;;41.83;;
27925;SDS011;15267;47.838;12.128;2024-01-11T10:21:20;97.13;;;40.90;;
27925;SDS011;15267;47.838;12.128;2024-01-11T10:23:46;91.47;;;40.17;;
27925;SDS011;15267;47.838;12.128;2024-01-11T10:26:15;97.18;;;40.90;;
27925;SDS011;15267;47.838;12.128;2024-01-11T10:28:43;94.60;;;39.95;;
27925;SDS011;15267;47.838;12.128;2024-01-11T10:31:10;90.10;;;39.03;;
27925;SDS011;15267;47.838;12.128;2024-01-11T10:33:36;99.03;;;42.20;;
27925;SDS011;15267;47.838;12.128;2024-01-11T10:36:02;105.32;;;43.53;;
27925;SDS011;15267;47.838;12.128;2024-01-11T10:38:29;116.15;;;47.70;;
27925;SDS011;15267;47.838;12.128;2024-01-11T10:40:56;98.82;;;40.95;;
27925;SDS011;15267;47.838;12.128;2024-01-11T10:43:24;102.25;;;43.50;;
27925;SDS011;15267;47.838;12.128;2024-01-11T10:45:50;113.25;;;45.03;;
27925;SDS011;15267;47.838;12.128;2024-01-11T10:48:19;102.65;;;42.42;;
27925;SDS011;15267;47.838;12.128;2024-01-11T10:50:49;99.63;;;42.60;;
27925;SDS011;15267;47.838;12.128;2024-01-11T10:55:42;95.93;;;40.30;;
27925;SDS011;15267;47.838;12.128;2024-01-11T10:58:09;93.53;;;40.35;;
27925;SDS011;15267;47.838;12.128;2024-01-11T11:00:36;97.45;;;40.55;;
27925;SDS011;15267;47.838;12.128;2024-01-11T11:03:03;98.40;;;41.50;;
27925;SDS011;15267;47.838;12.128;2024-01-11T11:05:31;96.57;;;40.05;;
27925;SDS011;15267;47.838;12.128;2024-01-11T11:08:00;150.02;;;55.45;;
27925;SDS011;15267;47.838;12.128;2024-01-11T11:10:27;96.28;;;39.58;;
27925;SDS011;15267;47.838;12.128;2024-01-11T11:12:54;96.35;;;40.08;;
27925;SDS011;15267;47.838;12.128;2024-01-11T11:15:24;89.38;;;38.47;;
27925;SDS011;15267;47.838;12.128;2024-01-11T11:17:52;98.20;;;40.08;;
27925;SDS011;15267;47.838;12.128;2024-01-11T11:20:18;101.32;;;40.00;;
27925;SDS011;15267;47.838;12.128;2024-01-11T11:22:48;91.85;;;39.15;;
27925;SDS011;15267;47.838;12.128;2024-01-11T11:25:24;88.82;;;38.90;;
27925;SDS011;15267;47.838;12.128;2024-01-11T11:27:50;88.38;;;38.53;;
27925;SDS011;15267;47.838;12.128;2024-01-11T11:30:19;110.45;;;45.47;;
27925;SDS011;15267;47.838;12.128;2024-01-11T11:32:45;99.70;;;40.75;;
27925;SDS011;15267;47.838;12.128;2024-01-11T11:35:11;104.50;;;45.22;;
27925;SDS011;15267;47.838;12.128;2024-01-11T11:37:38;114.28;;;43.75;;
27925;SDS011;15267;47.838;12.128;2024-01-11T11:40:04;89.40;;;38.45;;
27925;SDS011;15267;47.838;12.128;2024-01-11T11:42:31;90.28;;;39.22;;
27925;SDS011;15267;47.838;12.128;2024-01-11T11:44:57;90.63;;;39.00;;
27925;SDS011;15267;47.838;12.128;2024-01-11T11:47:23;107.28;;;42.00;;
27925;SDS011;15267;47.838;12.128;2024-01-11T11:49:57;88.40;;;39.55;;
27925;SDS011;15267;47.838;12.128;2024-01-11T11:52:26;90.43;;;39.72;;
27925;SDS011;15267;47.838;12.128;2024-01-11T11:54:53;95.65;;;40.70;;
27925;SDS011;15267;47.838;12.128;2024-01-11T11:57:19;83.15;;;36.45;;
27925;SDS011;15267;47.838;12.128;2024-01-11T11:59:45;85.78;;;37.75;;
27925;SDS011;15267;47.838;12.128;2024-01-11T12:02:11;93.80;;;39.58;;
27925;SDS011;15267;47.838;12.128;2024-01-11T12:04:40;90.22;;;39.05;;
27925;SDS011;15267;47.838;12.128;2024-01-11T12:07:06;98.43;;;39.95;;
27925;SDS011;15267;47.838;12.128;2024-01-11T12:09:32;95.72;;;38.10;;
27925;SDS011;15267;47.838;12.128;2024-01-11T12:11:58;83.85;;;36.72;;
27925;SDS011;15267;47.838;12.128;2024-01-11T12:14:24;85.90;;;38.67;;
27925;SDS011;15267;47.838;12.128;2024-01-11T12:16:58;78.72;;;36.78;;
27925;SDS011;15267;47.838;12.128;2024-01-11T12:19:24;82.95;;;35.08;;
27925;SDS011;15267;47.838;12.128;2024-01-11T12:21:50;80.05;;;36.20;;
27925;SDS011;15267;47.838;12.128;2024-01-11T12:24:17;93.45;;;41.95;;
27925;SDS011;15267;47.838;12.128;2024-01-11T12:26:43;83.22;;;40.40;;
27925;SDS011;15267;47.838;12.128;2024-01-11T12:29:09;97.05;;;45.13;;
27925;SDS011;15267;47.838;12.128;2024-01-11T12:31:35;106.28;;;47.88;;
27925;SDS011;15267;47.838;12.128;2024-01-11T12:34:01;92.95;;;42.78;;
27925;SDS011;15267;47.838;12.128;2024-01-11T12:36:28;84.22;;;37.38;;
27925;SDS011;15267;47.838;12.128;2024-01-11T12:38:54;94.70;;;41.83;;
27925;SDS011;15267;47.838;12.128;2024-01-11T12:41:23;97.40;;;42.97;;
27925;SDS011;15267;47.838;12.128;2024-01-11T12:43:49;91.57;;;39.42;;
27925;SDS011;15267;47.838;12.128;2024-01-11T12:46:15;85.47;;;39.60;;
27925;SDS011;15267;47.838;12.128;2024-01-11T12:48:42;95.97;;;40.03;;
27925;SDS011;15267;47.838;12.128;2024-01-11T12:51:08;103.07;;;42.08;;
27925;SDS011;15267;47.838;12.128;2024-01-11T12:53:35;90.05;;;39.78;;
27925;SDS011;15267;47.838;12.128;2024-01-11T12:56:02;90.82;;;39.17;;
27925;SDS011;15267;47.838;12.128;2024-01-11T12:58:29;83.78;;;38.17;;
27925;SDS011;15267;47.838;12.128;2024-01-11T13:00:55;87.90;;;39.65;;
27925;SDS011;15267;47.838;12.128;2024-01-11T13:03:22;82.72;;;36.47;;
27925;SDS011;15267;47.838;12.128;2024-01-11T13:05:48;91.03;;;40.17;;
27925;SDS011;15267;47.838;12.128;2024-01-11T13:08:14;94.15;;;42.17;;
27925;SDS011;15267;47.838;12.128;2024-01-11T13:10:40;90.43;;;40.25;;
27925;SDS011;15267;47.838;12.128;2024-01-11T13:13:06;88.13;;;41.88;;
27925;SDS011;15267;47.838;12.128;2024-01-11T13:15:33;89.47;;;40.42;;
27925;SDS011;15267;47.838;12.128;2024-01-11T13:17:59;89.47;;;40.33;;
27925;SDS011;15267;47.838;12.128;2024-01-11T13:20:25;85.15;;;37.40;;
27925;SDS011;15267;47.838;12.128;2024-01-11T13:22:56;93.97;;;38.75;;
27925;SDS011;15267;47.838;12.128;2024-01-11T13:25:36;88.55;;;39.92;;
27925;SDS011;15267;47.838;12.128;2024-01-11T13:28:02;88.53;;;38.30;;
27925;SDS011;15267;47.838;12.128;2024-01-11T13:30:28;96.75;;;38.92;;
27925;SDS011;15267;47.838;12.128;2024-01-11T13:32:54;89.63;;;37.72;;
27925;SDS011;15267;47.838;12.128;2024-01-11T13:35:20;98.68;;;40.60;;
27925;SDS011;15267;47.838;12.128;2024-01-11T13:37:46;97.82;;;41.17;;
27925;SDS011;15267;47.838;12.128;2024-01-11T13:40:12;95.15;;;39.78;;
27925;SDS011;15267;47.838;12.128;2024-01-11T13:42:39;97.28;;;41.30;;
27925;SDS011;15267;47.838;12.128;2024-01-11T13:45:05;107.68;;;42.83;;
27925;SDS011;15267;47.838;12.128;2024-01-11T13:47:33;99.20;;;41.22;;
27925;SDS011;15267;47.838;12.128;2024-01-11T13:49:59;91.88;;;39.90;;
27925;SDS011;15267;47.838;12.128;2024-01-11T13:52:26;92.82;;;39.30;;
27925;SDS011;15267;47.838;12.128;2024-01-11T13:54:52;97.90;;;40.80;;
27925;SDS011;15267;47.838;12.128;2024-01-11T13:57:18;94.85;;;38.90;;
27925;SDS011;15267;47.838;12.128;2024-01-11T13:59:44;94.95;;;41.35;;
27925;SDS011;15267;47.838;12.128;2024-01-11T14:02:09;93.93;;;40.45;;
27925;SDS011;15267;47.838;12.128;2024-01-11T14:04:35;98.68;;;40.10;;
27925;SDS011;15267;47.838;12.128;2024-01-11T14:07:01;106.85;;;42.17;;